Time;durP1;ratioP1;P1;durP2;ratioP2;P2;SDS_P1;SDS_P2;PMS_P1;PMS_P2;Temp;Humidity;BMP_temperature;BMP_pressure;BME280_temperature;BME280_humidity;BME280_pressure;Samples;Min_cycle;Max_cycle;Signal;HPM_P1;HPM_P2
2022/06/08 04:32:23;;;;;;;;;4.00;4.00;;;;;17.69;73.07;100489.63;3297162;26;46446;-76
2022/06/08 04:34:48;;;;;;;;;4.00;2.75;;;;;17.65;72.76;100479.97;5037896;28;45443;-76
2022/06/08 04:37:14;;;;;;;;;3.75;3.75;;;;;17.57;73.03;100464.28;5035268;28;45224;-76
2022/06/08 04:39:39;;;;;;;;;3.00;1.50;;;;;17.57;73.23;100474.28;5036255;28;45236;-76
2022/06/08 04:42:05;;;;;;;;;4.50;3.00;;;;;17.58;73.21;100482.28;5036176;28;45421;-74
2022/06/08 04:44:32;;;;;;;;;3.50;2.00;;;;;17.51;73.13;100472.94;5035979;28;45347;-77
2022/06/08 04:46:58;;;;;;;;;3.00;3.00;;;;;17.51;73.13;100472.94;5035779;28;45509;-75
2022/06/08 04:49:24;;;;;;;;;2.50;2.00;;;;;17.30;73.65;100445.66;5017940;28;45519;-75
2022/06/08 04:51:49;;;;;;;;;4.00;3.00;;;;;17.35;74.07;100461.56;5035365;28;45520;-81
2022/06/08 04:54:16;;;;;;;;;2.00;2.00;;;;;17.28;74.59;100454.88;5036197;28;45460;-78
2022/06/08 04:56:41;;;;;;;;;3.50;3.50;;;;;17.35;74.63;100472.41;5035498;28;45507;-80
2022/06/08 04:59:06;;;;;;;;;2.50;2.00;;;;;17.27;74.56;100459.44;5023771;28;45206;-78
2022/06/08 05:01:32;;;;;;;;;4.50;2.00;;;;;17.30;74.72;100470.03;5041631;28;45422;-78
2022/06/08 05:03:58;;;;;;;;;6.00;3.00;;;;;17.27;74.92;100462.13;5037949;28;45383;-76
2022/06/08 05:06:24;;;;;;;;;2.75;2.75;;;;;17.24;75.15;100456.97;5036301;28;45289;-77
2022/06/08 05:08:49;;;;;;;;;4.50;4.00;;;;;17.26;74.92;100438.75;5034710;28;45173;-78
2022/06/08 05:11:15;;;;;;;;;3.75;3.00;;;;;17.20;75.32;100441.06;5035459;28;45533;-78
2022/06/08 05:13:40;;;;;;;;;3.75;3.75;;;;;17.28;74.67;100455.75;5016944;28;45313;-76
2022/06/08 05:16:07;;;;;;;;;6.00;3.00;;;;;17.29;75.07;100443.91;5017540;28;45519;-79
2022/06/08 05:18:33;;;;;;;;;2.00;2.00;;;;;17.26;74.70;100443.31;5017534;28;47114;-79
2022/06/08 05:20:58;;;;;;;;;3.00;2.00;;;;;17.15;74.76;100448.69;5035418;28;46426;-77
2022/06/08 05:23:28;;;;;;;;;1.00;1.00;;;;;17.12;75.33;100446.22;5035060;28;45712;-78
2022/06/08 05:25:54;;;;;;;;;2.00;2.00;;;;;17.07;75.51;100441.19;5038964;28;45189;-78
2022/06/08 05:28:20;;;;;;;;;2.50;2.50;;;;;17.01;76.20;100438.94;5040136;28;45492;-80
2022/06/08 05:30:46;;;;;;;;;1.00;0.75;;;;;17.00;76.30;100431.81;5036848;28;46565;-76
2022/06/08 05:33:13;;;;;;;;;2.00;2.00;;;;;16.93;75.52;100425.97;5015205;28;45422;-77
2022/06/08 05:35:39;;;;;;;;;3.75;2.00;;;;;16.91;75.89;100438.78;5016171;28;45378;-78
2022/06/08 05:38:07;;;;;;;;;2.00;2.00;;;;;16.84;76.04;100432.09;5013366;28;45569;-76
2022/06/08 05:40:33;;;;;;;;;3.00;1.50;;;;;16.83;76.20;100437.66;5014099;28;46238;-73
2022/06/08 05:43:02;;;;;;;;;2.00;2.00;;;;;16.86;76.36;100432.84;5014545;28;45401;-76
2022/06/08 05:45:30;;;;;;;;;2.75;2.00;;;;;16.79;76.77;100428.88;5014271;28;45334;-74
2022/06/08 05:47:56;;;;;;;;;1.00;1.00;;;;;16.75;76.78;100434.66;5013814;28;45596;-74
2022/06/08 05:50:23;;;;;;;;;2.00;2.00;;;;;16.75;77.47;100440.94;5013891;28;45395;-77
2022/06/08 05:52:50;;;;;;;;;1.00;1.00;;;;;16.68;77.16;100431.53;5013633;28;45331;-74
2022/06/08 05:55:17;;;;;;;;;1.25;1.25;;;;;16.59;77.24;100424.94;5014301;28;45481;-78
2022/06/08 05:57:42;;;;;;;;;4.25;3.00;;;;;16.68;77.30;100439.66;4987801;28;46132;-78
2022/06/08 06:00:12;;;;;;;;;2.00;2.00;;;;;16.59;77.40;100421.38;4996243;28;46008;-76
2022/06/08 06:02:38;;;;;;;;;1.00;1.00;;;;;16.59;77.59;100430.38;5014111;28;45345;-76
2022/06/08 06:05:04;;;;;;;;;1.25;1.25;;;;;16.58;77.83;100430.50;4996801;28;45487;-76
2022/06/08 06:07:30;;;;;;;;;1.00;1.00;;;;;16.58;77.79;100427.81;5013459;28;45541;-73
2022/06/08 06:09:55;;;;;;;;;2.00;2.00;;;;;16.61;77.77;100441.13;5013578;28;46214;-77
2022/06/08 06:12:20;;;;;;;;;2.25;2.25;;;;;16.54;78.43;100426.28;5013680;28;45288;-78
2022/06/08 06:14:46;;;;;;;;;3.00;2.00;;;;;16.65;78.59;100439.91;5014063;28;45307;-71
2022/06/08 06:17:12;;;;;;;;;1.00;1.00;;;;;16.58;77.99;100433.22;5013392;28;45405;-74
2022/06/08 06:19:37;;;;;;;;;1.00;1.00;;;;;16.63;78.49;100437.31;5014360;28;45402;-75
2022/06/08 06:22:04;;;;;;;;;2.00;2.00;;;;;16.68;78.75;100436.09;5018129;28;45376;-74
2022/06/08 06:24:30;;;;;;;;;1.75;1.75;;;;;16.64;78.24;100435.47;5020619;28;45429;-74
2022/06/08 06:26:55;;;;;;;;;1.00;1.00;;;;;16.66;77.95;100433.53;5025328;28;45289;-75
2022/06/08 06:29:21;;;;;;;;;0.25;0.00;;;;;16.69;77.98;100438.69;5026054;28;45983;-75
2022/06/08 06:31:55;;;;;;;;;2.00;2.00;;;;;16.72;78.30;100443.88;5026933;28;45702;-76
2022/06/08 06:34:24;;;;;;;;;2.50;2.00;;;;;16.72;78.35;100449.28;5025182;28;45513;-75
2022/06/08 06:36:53;;;;;;;;;0.50;0.50;;;;;16.68;78.14;100436.09;5024908;28;46101;-75
2022/06/08 06:39:18;;;;;;;;;3.00;1.50;;;;;16.60;78.55;100434.81;5025518;28;46369;-75
2022/06/08 06:41:44;;;;;;;;;1.00;1.00;;;;;16.63;78.48;100441.88;5018416;28;45472;-75
2022/06/08 06:44:10;;;;;;;;;1.00;1.00;;;;;16.65;78.33;100456.16;5016717;28;45506;-75
2022/06/08 06:46:35;;;;;;;;;0.00;0.00;;;;;16.64;78.41;100449.88;5016246;28;47857;-74
2022/06/08 06:49:01;;;;;;;;;0.00;0.00;;;;;16.65;78.20;100450.75;4998619;28;47531;-75
2022/06/08 06:51:27;;;;;;;;;1.00;1.00;;;;;16.58;78.53;100444.03;5015869;28;45517;-74
2022/06/08 06:53:52;;;;;;;;;0.50;0.00;;;;;16.68;78.38;100455.91;5016445;28;45159;-75
2022/06/08 06:56:18;;;;;;;;;2.00;0.00;;;;;16.65;78.16;100448.03;5016517;28;45245;-75
2022/06/08 06:58:48;;;;;;;;;0.75;0.75;;;;;16.68;78.40;100457.75;5015614;28;45449;-74
2022/06/08 07:01:13;;;;;;;;;0.00;0.00;;;;;16.57;78.70;100442.31;5016120;28;45427;-74
2022/06/08 07:03:39;;;;;;;;;0.00;0.00;;;;;16.64;78.87;100455.28;5015656;28;45502;-74
2022/06/08 07:06:04;;;;;;;;;1.00;0.25;;;;;16.67;78.88;100456.91;5015884;28;45360;-74
2022/06/08 07:08:30;;;;;;;;;0.00;0.00;;;;;16.71;78.49;100454.81;4998217;28;46251;-75
2022/06/08 07:13:41;;;;;;;;;0.00;0.00;;;;;16.66;78.87;100463.31;5016090;28;45372;-75
2022/06/08 07:16:06;;;;;;;;;1.00;1.00;;;;;16.55;78.99;100445.13;5015659;28;45454;-75
2022/06/08 07:18:32;;;;;;;;;0.00;0.00;;;;;16.59;79.02;100459.28;5016314;28;45430;-74
2022/06/08 07:20:57;;;;;;;;;1.00;1.00;;;;;16.52;79.14;100439.06;5017370;28;45456;-75
2022/06/08 07:23:22;;;;;;;;;0.00;0.00;;;;;16.69;79.08;100463.06;5016980;28;45305;-74
2022/06/08 07:25:48;;;;;;;;;0.00;0.00;;;;;16.68;78.97;100458.63;5018213;28;46044;-75
2022/06/08 07:28:14;;;;;;;;;0.00;0.00;;;;;16.64;79.43;100459.84;5035588;28;45476;-76
2022/06/08 07:30:39;;;;;;;;;1.00;0.00;;;;;16.64;79.33;100459.84;5035349;28;45395;-73
2022/06/08 07:33:05;;;;;;;;;0.00;0.00;;;;;16.62;79.21;100454.53;5015778;28;45486;-75
2022/06/08 07:35:30;;;;;;;;;0.00;0.00;;;;;16.59;79.57;100457.44;5015569;28;45377;-75
2022/06/08 07:37:55;;;;;;;;;0.00;0.00;;;;;16.63;80.08;100456.28;5015262;28;45450;-75
2022/06/08 07:40:21;;;;;;;;;0.00;0.00;;;;;16.66;79.68;100448.91;5015761;28;45359;-74
2022/06/08 07:42:47;;;;;;;;;0.00;0.00;;;;;16.79;79.68;100463.22;5014865;28;45431;-75
2022/06/08 07:45:12;;;;;;;;;1.00;1.00;;;;;16.80;78.87;100448.72;5015446;28;45592;-74
2022/06/08 07:50:24;;;;;;;;;0.00;0.00;;;;;16.87;78.70;100456.25;5015302;28;45396;-74
2022/06/08 07:52:49;;;;;;;;;0.00;0.00;;;;;16.88;79.39;100440.84;5014067;28;45391;-75
2022/06/08 07:55:14;;;;;;;;;0.00;0.00;;;;;16.97;78.90;100441.03;5014796;28;45468;-74
2022/06/08 07:57:40;;;;;;;;;0.75;0.75;;;;;17.05;78.33;100456.66;5015677;28;45323;-74
2022/06/08 08:00:06;;;;;;;;;0.00;0.00;;;;;17.12;78.40;100449.78;4997132;28;45338;-75
2022/06/08 08:02:32;;;;;;;;;1.00;1.00;;;;;17.17;78.65;100465.72;5015211;28;45229;-76
2022/06/08 08:04:57;;;;;;;;;0.00;0.00;;;;;17.30;78.11;100456.50;5015378;28;45579;-76
2022/06/08 08:07:23;;;;;;;;;0.00;0.00;;;;;17.34;78.10;100440.88;5015132;28;45766;-76
2022/06/08 08:09:49;;;;;;;;;0.00;0.00;;;;;17.56;77.26;100448.16;5016191;28;45343;-75
2022/06/08 08:12:15;;;;;;;;;0.00;0.00;;;;;17.64;76.87;100435.75;5016528;28;45157;-75
2022/06/08 08:14:42;;;;;;;;;0.00;0.00;;;;;17.90;75.86;100446.34;5014641;28;45581;-77
2022/06/08 08:17:08;;;;;;;;;0.50;0.50;;;;;18.00;75.88;100445.47;5015161;28;46437;-76
2022/06/08 08:19:34;;;;;;;;;1.00;1.00;;;;;18.19;76.12;100444.84;5015432;28;45330;-75
2022/06/08 08:22:00;;;;;;;;;0.00;0.00;;;;;18.33;75.44;100443.69;5014986;28;45272;-75
2022/06/08 08:24:25;;;;;;;;;0.25;0.00;;;;;18.39;73.91;100426.88;5014577;28;45597;-74
2022/06/08 08:26:51;;;;;;;;;2.00;1.00;;;;;18.49;74.35;100422.41;5027236;28;45708;-76
2022/06/08 08:29:17;;;;;;;;;1.50;0.25;;;;;18.57;73.61;100419.09;5033781;28;45231;-74
2022/06/08 08:31:43;;;;;;;;;0.00;0.00;;;;;18.67;74.10;100430.91;5025436;28;45368;-74
2022/06/08 08:34:09;;;;;;;;;1.50;0.00;;;;;18.70;73.37;100434.22;5013792;28;45352;-75
2022/06/08 08:36:34;;;;;;;;;0.00;0.00;;;;;18.69;74.26;100431.63;5013857;28;46454;-75
2022/06/08 08:38:59;;;;;;;;;1.50;1.50;;;;;18.68;73.53;100435.34;5013797;28;45318;-76
2022/06/08 08:44:38;;;;;;;;;0.00;0.00;;;;;18.51;74.40;100440.31;5022113;28;45646;-75
2022/06/08 08:47:27;;;;;;;;;0.00;0.00;;;;;18.50;74.38;100452.16;5034363;28;45233;-75
2022/06/08 08:50:00;;;;;;;;;0.00;0.00;;;;;18.43;74.55;100455.50;5034625;28;45568;-76
2022/06/08 08:52:54;;;;;;;;;1.25;0.00;;;;;18.20;75.00;100429.41;5034042;28;45425;-75
2022/06/08 08:55:41;;;;;;;;;0.00;0.00;;;;;18.47;75.41;100457.81;5034246;28;45478;-74
2022/06/08 08:58:07;;;;;;;;;0.00;0.00;;;;;18.48;74.95;100461.41;5033846;28;45441;-76
2022/06/08 09:00:37;;;;;;;;;0.00;0.00;;;;;18.48;75.38;100466.84;5034380;28;45380;-76
2022/06/08 09:03:14;;;;;;;;;2.00;0.00;;;;;18.50;75.56;100463.00;5034719;28;45265;-77
2022/06/08 09:05:42;;;;;;;;;1.00;1.00;;;;;18.51;75.38;100459.31;5034542;28;45262;-75
2022/06/08 09:08:11;;;;;;;;;2.25;1.00;;;;;18.44;75.65;100449.97;5034671;28;45384;-77
2022/06/08 09:10:37;;;;;;;;;1.00;1.00;;;;;18.57;75.03;100451.66;5035242;28;45310;-74
2022/06/08 09:13:06;;;;;;;;;1.00;1.00;;;;;18.73;74.37;100457.53;5034693;28;45375;-75
2022/06/08 09:16:01;;;;;;;;;0.00;0.00;;;;;18.89;74.26;100450.66;5034336;28;45443;-75
2022/06/08 09:18:32;;;;;;;;;0.00;0.00;;;;;19.01;73.34;100456.06;5013183;28;46097;-77
2022/06/08 09:21:00;;;;;;;;;0.00;0.00;;;;;19.15;73.63;100453.00;5034564;28;45298;-76
2022/06/08 09:23:39;;;;;;;;;1.00;1.00;;;;;19.20;72.53;100453.50;5033984;28;45347;-77
2022/06/08 09:26:13;;;;;;;;;1.75;1.75;;;;;19.26;72.41;100450.22;5027765;28;45542;-77
2022/06/08 09:28:39;;;;;;;;;1.25;1.25;;;;;19.18;72.65;100445.47;5014162;28;46311;-77
2022/06/08 09:31:05;;;;;;;;;0.00;0.00;;;;;19.30;72.30;100454.41;5016927;28;45507;-77
2022/06/08 09:33:36;;;;;;;;;1.00;1.00;;;;;19.25;70.13;100437.63;5020401;28;45395;-75
2022/06/08 09:36:07;;;;;;;;;1.25;1.25;;;;;19.32;70.50;100448.81;5013775;28;45512;-76
2022/06/08 09:38:38;;;;;;;;;0.50;0.50;;;;;19.30;68.17;100465.28;5013061;28;45257;-74
2022/06/08 09:41:16;;;;;;;;;1.00;1.00;;;;;19.35;70.17;100454.00;5013804;28;45545;-75
2022/06/08 09:43:50;;;;;;;;;1.00;1.00;;;;;19.32;69.67;100448.81;5014018;28;45205;-76
2022/06/08 09:52:32;;;;;;;;;1.00;1.00;;;;;19.52;68.86;100451.56;5033450;28;45316;-76
2022/06/08 09:55:24;;;;;;;;;1.00;1.00;;;;;19.62;68.72;100457.94;5035812;28;45414;-75
2022/06/08 09:57:51;;;;;;;;;1.00;1.00;;;;;19.75;68.60;100444.09;5037562;28;45327;-76
2022/06/08 10:00:31;;;;;;;;;1.50;1.50;;;;;19.77;67.58;100431.22;5037869;28;46214;-75
2022/06/08 10:03:21;;;;;;;;;1.00;1.00;;;;;19.92;66.57;100448.88;5038543;28;45362;-76
2022/06/08 10:06:13;;;;;;;;;1.50;1.50;;;;;19.98;66.51;100433.91;5037910;28;45403;-76
2022/06/08 10:08:41;;;;;;;;;1.00;1.00;;;;;19.98;65.61;100425.72;5037031;28;45255;-75
2022/06/08 10:11:44;;;;;;;;;2.00;2.00;;;;;20.00;66.89;100429.16;5036838;28;46524;-75
2022/06/08 10:14:21;;;;;;;;;0.25;0.25;;;;;19.96;64.34;100420.44;5037394;28;45386;-74
2022/06/08 10:17:05;;;;;;;;;0.00;0.00;;;;;20.00;62.36;100416.41;5036856;28;45435;-75
2022/06/08 10:19:56;;;;;;;;;1.00;1.00;;;;;20.13;63.86;100408.00;5037084;28;45296;-76
2022/06/08 10:22:27;;;;;;;;;1.00;1.00;;;;;20.27;63.23;100409.47;4974519;28;47404;-75
2022/06/08 10:25:01;;;;;;;;;0.00;0.00;;;;;20.39;63.49;100401.06;5025087;28;45378;-76
2022/06/08 10:27:51;;;;;;;;;1.50;0.25;;;;;20.72;61.62;100434.34;5019853;28;45328;-76
2022/06/08 10:30:29;;;;;;;;;1.00;1.00;;;;;20.72;61.50;100416.16;5014409;28;45538;-75
2022/06/08 10:32:59;;;;;;;;;1.00;1.00;;;;;20.69;61.99;100410.09;5024114;28;46638;-75
2022/06/08 10:35:35;;;;;;;;;0.25;0.00;;;;;20.65;63.41;100444.97;4999028;28;45346;-75
2022/06/08 10:38:02;;;;;;;;;0.75;0.75;;;;;20.33;65.41;100442.41;5016468;28;45601;-75
2022/06/08 10:40:37;;;;;;;;;0.75;0.75;;;;;20.08;67.65;100436.63;5016282;28;45367;-77
2022/06/08 10:43:03;;;;;;;;;0.00;0.00;;;;;19.98;67.72;100445.66;4998660;28;47364;-76
2022/06/08 10:45:51;;;;;;;;;1.75;1.00;;;;;19.81;68.00;100435.41;5016459;28;45323;-75
2022/06/08 10:48:17;;;;;;;;;0.50;0.50;;;;;19.75;68.71;100440.50;5016521;28;45435;-76
2022/06/08 10:50:48;;;;;;;;;0.75;0.75;;;;;19.48;68.91;100430.25;5016973;28;45486;-76
2022/06/08 10:56:26;;;;;;;;;1.50;0.00;;;;;19.32;70.66;100449.69;5018036;28;45210;-76
2022/06/08 10:59:06;;;;;;;;;1.50;1.50;;;;;19.28;70.79;100451.84;5017183;28;45244;-76
2022/06/08 11:01:37;;;;;;;;;2.75;2.00;;;;;19.34;71.20;100449.56;5021034;28;45895;-74
2022/06/08 11:04:06;;;;;;;;;2.75;2.75;;;;;19.40;71.74;100446.31;5024458;28;45569;-76
2022/06/08 11:06:54;;;;;;;;;1.50;1.50;;;;;19.61;72.14;100452.63;5024603;28;45348;-76
2022/06/08 11:09:33;;;;;;;;;2.75;2.75;;;;;19.79;72.54;100455.56;5023664;28;45528;-77
2022/06/08 11:12:13;;;;;;;;;1.50;1.50;;;;;20.08;69.93;100453.81;5025027;28;45596;-75
2022/06/08 11:14:47;;;;;;;;;2.25;2.25;;;;;20.17;68.77;100449.41;5022958;28;45669;-72
2022/06/08 11:17:27;;;;;;;;;4.25;3.25;;;;;20.24;68.65;100456.03;5027289;28;45480;-76
2022/06/08 11:19:58;;;;;;;;;3.75;2.00;;;;;20.13;67.57;100456.13;5024940;28;45390;-80
2022/06/08 11:22:38;;;;;;;;;0.00;0.00;;;;;19.98;67.30;100423.88;5023124;28;45444;-79
2022/06/08 11:25:10;;;;;;;;;2.00;2.00;;;;;20.22;67.93;100456.16;5021359;28;45452;-80
2022/06/08 11:27:37;;;;;;;;;3.00;2.00;;;;;20.32;67.70;100443.44;5024346;28;45375;-79
2022/06/08 11:30:22;;;;;;;;;1.75;1.75;;;;;20.50;65.13;100449.06;5008169;28;45388;-81
2022/06/08 11:32:50;;;;;;;;;0.00;0.00;;;;;20.54;63.90;100439.63;5022743;28;45586;-77
2022/06/08 11:35:43;;;;;;;;;1.50;1.50;;;;;20.74;62.92;100435.06;5023497;28;46324;-79
2022/06/08 11:38:21;;;;;;;;;2.00;2.00;;;;;20.88;61.99;100431.91;5022919;28;45528;-77
2022/06/08 11:40:47;;;;;;;;;1.00;1.00;;;;;20.92;60.29;100433.38;5024382;28;45404;-75
2022/06/08 11:43:13;;;;;;;;;1.00;1.00;;;;;21.02;59.22;100428.75;5026317;28;45541;-76
2022/06/08 11:45:46;;;;;;;;;0.75;0.75;;;;;21.01;59.08;100440.63;5006071;28;46619;-75
2022/06/08 11:48:19;;;;;;;;;1.50;1.50;;;;;21.08;58.54;100439.09;5025728;28;45624;-78
2022/06/08 11:50:50;;;;;;;;;1.00;1.00;;;;;20.99;57.62;100434.50;5026435;28;45416;-75
2022/06/08 11:53:18;;;;;;;;;1.75;1.75;;;;;21.00;58.79;100438.94;5022986;28;45359;-74
2022/06/08 11:56:13;;;;;;;;;1.00;1.00;;;;;21.00;59.00;100449.00;5023057;28;46094;-76
2022/06/08 11:58:48;;;;;;;;;2.00;1.75;;;;;20.91;57.99;100448.00;5022426;28;45473;-74
2022/06/08 12:01:22;;;;;;;;;5.75;1.75;;;;;20.88;56.79;100442.81;5025014;28;45407;-75
2022/06/08 12:04:02;;;;;;;;;2.00;2.00;;;;;20.99;57.62;100447.25;5023938;28;45644;-73
2022/06/08 12:06:35;;;;;;;;;1.00;1.00;;;;;20.99;56.14;100452.72;5021466;28;46428;-74
2022/06/08 12:09:06;;;;;;;;;1.25;1.25;;;;;21.19;56.11;100453.56;5015345;28;45434;-75
2022/06/08 12:11:36;;;;;;;;;1.00;1.00;;;;;21.32;54.43;100455.00;5015373;28;45308;-75
2022/06/08 12:14:34;;;;;;;;;1.00;1.00;;;;;21.47;52.99;100450.81;5009868;28;47468;-76
2022/06/08 12:17:04;;;;;;;;;1.00;1.00;;;;;21.58;51.44;100454.38;5015293;28;45335;-76
2022/06/08 12:19:56;;;;;;;;;1.00;1.00;;;;;21.68;52.20;100449.75;5014386;28;45316;-76
2022/06/08 12:22:26;;;;;;;;;0.75;0.75;;;;;21.66;50.56;100473.59;5015456;28;45253;-74
2022/06/08 12:25:13;;;;;;;;;0.00;0.00;;;;;21.57;49.41;100450.78;4997227;28;46374;-76
2022/06/08 12:27:59;;;;;;;;;0.75;0.75;;;;;21.64;49.44;100443.72;5015704;28;47209;-75
2022/06/08 12:30:55;;;;;;;;;1.00;1.00;;;;;21.80;49.12;100435.75;5019242;28;45454;-74
2022/06/08 12:33:28;;;;;;;;;1.00;1.00;;;;;21.80;48.98;100432.16;5015157;28;45380;-77
2022/06/08 12:36:10;;;;;;;;;1.00;1.00;;;;;22.06;49.77;100438.69;5021518;28;45391;-76
2022/06/08 12:38:38;;;;;;;;;1.00;0.75;;;;;22.36;49.16;100444.88;5034607;28;46151;-75
2022/06/08 12:41:09;;;;;;;;;3.00;1.75;;;;;22.55;46.19;100441.97;5034642;28;45344;-76
2022/06/08 12:43:52;;;;;;;;;0.25;0.25;;;;;22.51;46.19;100435.13;5035175;28;45457;-75
2022/06/08 12:46:28;;;;;;;;;0.25;0.25;;;;;22.64;46.26;100420.06;5034798;28;45422;-76
2022/06/08 12:49:12;;;;;;;;;1.00;1.00;;;;;22.89;46.33;100423.06;5034677;28;45665;-75
2022/06/08 12:51:41;;;;;;;;;1.00;0.00;;;;;22.95;44.69;100416.97;5034101;28;45307;-76
2022/06/08 12:54:25;;;;;;;;;0.25;0.25;;;;;23.11;45.51;100417.09;5034780;28;45355;-75
2022/06/08 12:56:55;;;;;;;;;0.75;0.75;;;;;23.25;45.36;100412.94;5034586;28;45892;-74
2022/06/08 12:59:21;;;;;;;;;0.00;0.00;;;;;23.40;44.99;100427.72;5034489;28;46326;-74
2022/06/08 13:01:47;;;;;;;;;1.00;0.50;;;;;23.45;44.07;100408.97;5034412;28;45541;-76
2022/06/08 13:04:18;;;;;;;;;1.00;1.00;;;;;23.68;44.15;100409.31;5033956;28;45320;-75
2022/06/08 13:06:44;;;;;;;;;2.00;0.00;;;;;23.85;42.28;100422.06;5032654;28;45593;-75
2022/06/08 13:09:12;;;;;;;;;3.50;0.50;;;;;24.00;42.46;100414.94;5033653;28;45374;-75
2022/06/08 13:11:38;;;;;;;;;0.00;0.00;;;;;24.19;42.99;100416.56;5014980;28;45285;-74
2022/06/08 13:14:04;;;;;;;;;1.50;0.50;;;;;24.15;41.13;100428.88;5024525;28;45427;-75
2022/06/08 13:16:30;;;;;;;;;2.50;0.00;;;;;24.13;40.94;100415.34;5023794;28;45377;-73
2022/06/08 13:18:58;;;;;;;;;1.25;0.25;;;;;24.09;41.66;100421.31;5020570;28;45975;-72
2022/06/08 13:21:25;;;;;;;;;0.50;0.50;;;;;24.02;41.51;100434.81;5013937;28;45312;-74
2022/06/08 13:23:51;;;;;;;;;1.00;1.00;;;;;23.91;42.03;100442.44;5014287;28;45387;-73
2022/06/08 13:26:26;;;;;;;;;0.25;0.25;;;;;23.84;42.58;100442.25;5021768;28;45366;-74
2022/06/08 13:28:52;;;;;;;;;0.50;0.50;;;;;23.70;43.10;100440.97;5015804;28;48430;-73
2022/06/08 13:31:23;;;;;;;;;1.00;1.00;;;;;23.85;42.89;100456.78;5028732;28;45565;-72
2022/06/08 13:34:04;;;;;;;;;2.00;0.00;;;;;23.73;42.46;100451.59;5014602;28;45423;-73
2022/06/08 13:36:46;;;;;;;;;1.00;0.75;;;;;23.58;42.50;100452.34;5014018;28;45305;-72
2022/06/08 13:39:31;;;;;;;;;0.25;0.25;;;;;23.67;42.66;100471.41;5013952;28;45403;-72
2022/06/08 13:42:04;;;;;;;;;1.75;0.75;;;;;23.76;42.08;100458.63;5013739;28;45217;-73
2022/06/08 13:44:42;;;;;;;;;0.75;0.75;;;;;23.73;42.34;100467.19;5014075;28;45477;-72
2022/06/08 13:47:19;;;;;;;;;1.00;1.00;;;;;23.58;41.22;100464.16;5013948;28;45380;-73
2022/06/08 13:49:55;;;;;;;;;0.75;0.75;;;;;23.45;41.48;100463.69;5013807;28;45442;-73
2022/06/08 13:52:25;;;;;;;;;2.00;0.50;;;;;23.24;42.17;100466.78;5013969;28;45405;-72
2022/06/08 13:54:55;;;;;;;;;0.00;0.00;;;;;23.12;43.25;100462.59;5013974;28;45391;-73
2022/06/08 13:57:23;;;;;;;;;0.50;0.50;;;;;23.06;42.83;100474.13;5013796;28;45550;-73
2022/06/08 13:59:50;;;;;;;;;2.00;2.00;;;;;22.97;43.36;100486.88;5013485;28;45455;-74
2022/06/08 14:02:32;;;;;;;;;4.25;1.75;;;;;22.86;43.31;100480.78;5013851;28;45402;-73
2022/06/08 14:04:58;;;;;;;;;0.00;0.00;;;;;22.81;43.38;100469.44;5013865;28;45474;-74
2022/06/08 14:13:15;;;;;;;;;1.50;0.75;;;;;22.78;44.39;100470.63;5020257;28;45307;-72
2022/06/08 14:15:45;;;;;;;;;1.00;1.00;;;;;22.89;43.81;100473.13;5033739;28;45398;-73
2022/06/08 14:18:21;;;;;;;;;0.50;0.50;;;;;23.04;42.69;100491.72;5033638;28;45491;-73
2022/06/08 14:20:47;;;;;;;;;3.00;1.50;;;;;23.30;43.23;100478.97;5033001;28;46670;-72
2022/06/08 14:23:15;;;;;;;;;1.00;1.00;;;;;23.54;42.49;100479.19;5033497;28;45296;-73
2022/06/08 14:25:41;;;;;;;;;3.75;1.00;;;;;23.79;43.34;100468.41;5033091;28;45613;-73
2022/06/08 14:28:07;;;;;;;;;5.00;0.00;;;;;24.04;43.16;100486.69;5033287;28;46118;-73
2022/06/08 14:30:34;;;;;;;;;2.75;1.00;;;;;24.49;43.26;100480.94;5033166;28;46114;-73
2022/06/08 14:33:02;;;;;;;;;0.25;0.25;;;;;24.93;41.50;100478.81;5013683;28;46788;-72
2022/06/08 14:35:35;;;;;;;;;0.75;0.75;;;;;25.48;41.49;100487.25;5013401;28;45328;-73
2022/06/08 14:38:01;;;;;;;;;1.75;1.75;;;;;25.70;41.19;100462.88;5012976;28;45289;-73
2022/06/08 14:40:37;;;;;;;;;2.25;1.25;;;;;25.80;40.16;100482.75;5026431;28;46368;-74
2022/06/08 14:43:05;;;;;;;;;3.00;1.00;;;;;25.97;39.04;100488.06;5016441;28;45351;-73
2022/06/08 14:45:32;;;;;;;;;0.75;0.75;;;;;26.04;38.21;100473.59;5016717;28;45367;-74
2022/06/08 14:47:57;;;;;;;;;2.75;1.00;;;;;26.05;38.89;100467.06;5016565;28;45492;-73
2022/06/08 14:50:27;;;;;;;;;2.00;2.00;;;;;25.99;38.77;100477.75;5016396;28;45248;-73
2022/06/08 14:52:54;;;;;;;;;1.00;1.00;;;;;25.99;38.34;100465.91;5016398;28;45517;-72
2022/06/08 14:58:16;;;;;;;;;0.00;0.00;;;;;26.27;36.22;100466.34;5000147;28;45785;-73
2022/06/08 15:00:42;;;;;;;;;0.00;0.00;;;;;26.44;36.57;100461.63;5016221;28;45388;-71
2022/06/08 15:03:14;;;;;;;;;1.00;1.00;;;;;26.83;35.28;100472.56;5016264;28;45396;-74
2022/06/08 15:05:40;;;;;;;;;1.00;1.00;;;;;26.90;35.31;100479.03;5016517;28;45439;-72
2022/06/08 15:08:06;;;;;;;;;1.75;0.50;;;;;26.59;34.43;100466.19;5016082;28;45474;-73
2022/06/08 15:10:31;;;;;;;;;0.25;0.25;;;;;26.26;35.19;100462.75;5016129;28;47504;-73
2022/06/08 15:12:58;;;;;;;;;2.75;2.00;;;;;26.07;35.15;100481.50;5016482;28;45300;-75
2022/06/08 15:15:27;;;;;;;;;0.50;0.50;;;;;25.68;36.29;100475.94;5016278;28;45344;-73
2022/06/08 15:17:55;;;;;;;;;1.50;0.00;;;;;25.96;36.07;100496.47;4998067;28;45386;-74
2022/06/08 15:20:25;;;;;;;;;0.25;0.00;;;;;25.91;35.80;100480.53;5015984;28;47117;-74
2022/06/08 15:22:54;;;;;;;;;0.75;0.25;;;;;25.72;35.90;100491.88;5015959;28;45245;-74
2022/06/08 15:25:28;;;;;;;;;1.00;1.00;;;;;25.55;36.03;100495.66;5016527;28;45306;-72
2022/06/08 15:27:58;;;;;;;;;1.50;0.00;;;;;25.77;35.90;100481.25;5016179;28;45462;-72
2022/06/08 15:30:27;;;;;;;;;1.00;1.00;;;;;26.00;35.33;100492.34;5015395;28;46166;-73
2022/06/08 15:32:53;;;;;;;;;0.00;0.00;;;;;25.98;35.37;100495.25;5025130;28;45388;-73
2022/06/08 15:35:21;;;;;;;;;0.50;0.50;;;;;26.01;34.59;100502.31;5015601;28;45557;-72
2022/06/08 15:37:49;;;;;;;;;1.00;1.00;;;;;26.27;34.39;100494.69;5015030;28;45375;-73
2022/06/08 15:40:22;;;;;;;;;0.00;0.00;;;;;26.79;34.30;100505.09;5015538;28;45262;-73
2022/06/08 15:42:47;;;;;;;;;0.00;0.00;;;;;26.99;34.00;100500.00;5015865;28;45277;-72
2022/06/08 15:45:14;;;;;;;;;0.50;0.50;;;;;26.97;34.15;100500.19;5015802;28;45233;-73
2022/06/08 15:47:48;;;;;;;;;1.00;1.00;;;;;26.45;34.83;100488.94;5015919;28;45395;-73
2022/06/08 15:50:19;;;;;;;;;0.00;0.00;;;;;26.15;35.49;100493.31;5015631;28;45579;-73
2022/06/08 15:52:48;;;;;;;;;0.50;0.25;;;;;25.91;35.49;100501.63;5014481;28;45407;-74
2022/06/08 15:55:24;;;;;;;;;3.00;1.50;;;;;25.55;36.79;100504.75;5015620;28;45426;-72
2022/06/08 15:57:50;;;;;;;;;1.50;1.50;;;;;25.37;37.53;100504.06;5015270;28;45451;-74
2022/06/08 16:00:24;;;;;;;;;1.25;1.00;;;;;25.09;38.19;100514.53;5015236;28;46059;-75
2022/06/08 16:02:51;;;;;;;;;1.25;1.25;;;;;24.86;38.70;100499.69;4997653;28;45297;-72
2022/06/08 16:05:17;;;;;;;;;1.75;0.75;;;;;24.77;38.56;100509.78;5015662;28;45355;-73
2022/06/08 16:07:44;;;;;;;;;0.00;0.00;;;;;24.77;38.66;100519.88;5014707;28;45502;-72
2022/06/08 16:10:14;;;;;;;;;0.00;0.00;;;;;25.01;37.87;100517.22;5015277;28;47090;-74
2022/06/08 16:12:40;;;;;;;;;0.50;0.50;;;;;25.22;37.88;100523.09;5015338;28;45508;-74
2022/06/08 16:15:06;;;;;;;;;0.00;0.00;;;;;25.12;37.46;100519.66;5015485;28;46008;-74
2022/06/08 16:17:31;;;;;;;;;0.00;0.00;;;;;24.90;38.25;100506.56;5014456;28;45550;-74
2022/06/08 16:19:57;;;;;;;;;2.50;1.50;;;;;24.68;38.74;100519.00;5015257;28;46237;-73
2022/06/08 16:22:22;;;;;;;;;2.75;1.00;;;;;24.40;39.20;100520.28;5014773;28;45375;-71
2022/06/08 16:24:48;;;;;;;;;2.00;0.00;;;;;24.06;40.48;100523.84;5015266;28;45299;-74
2022/06/08 16:27:14;;;;;;;;;2.00;0.75;;;;;23.72;41.15;100540.22;5030436;28;45465;-70
2022/06/08 16:29:41;;;;;;;;;3.00;1.25;;;;;23.55;42.12;100546.59;5035219;28;46045;-73
2022/06/08 16:32:07;;;;;;;;;1.00;1.00;;;;;23.38;42.70;100539.22;5022394;28;45461;-74
2022/06/08 16:34:33;;;;;;;;;3.00;1.25;;;;;23.44;42.67;100554.16;5015198;28;45359;-73
2022/06/08 16:36:59;;;;;;;;;2.25;0.75;;;;;23.57;43.23;100550.00;5014685;28;45383;-75